createdAt,value
2023-04-26T00:00:35.270Z,100.00
2023-04-26T00:01:17.335Z,100.00
2023-04-26T00:01:58.978Z,100.00
2023-04-26T00:02:41.325Z,100.00
2023-04-26T00:03:23.547Z,100.00
2023-04-26T00:04:05.546Z,100.00
2023-04-26T00:04:47.878Z,100.00
2023-04-26T00:05:29.805Z,100.00
2023-04-26T00:06:14.576Z,100.00
2023-04-26T00:06:56.442Z,100.00
2023-04-26T00:07:38.190Z,100.00
2023-04-26T00:08:19.876Z,100.00
2023-04-26T00:09:01.467Z,100.00
2023-04-26T00:09:44.707Z,100.00
2023-04-26T00:10:26.720Z,100.00
2023-04-26T00:11:08.292Z,100.00
2023-04-26T00:11:49.985Z,100.00
2023-04-26T00:12:31.614Z,100.00
2023-04-26T00:13:13.285Z,100.00
2023-04-26T00:13:55.213Z,100.00
2023-04-26T00:14:36.766Z,100.00
2023-04-26T00:15:18.449Z,100.00
2023-04-26T00:16:00.268Z,100.00
2023-04-26T00:16:41.990Z,100.00
2023-04-26T00:17:24.704Z,100.00
2023-04-26T00:18:06.369Z,100.00
2023-04-26T00:18:49.234Z,100.00
2023-04-26T00:19:32.182Z,100.00
2023-04-26T00:20:14.133Z,100.00
2023-04-26T00:20:55.829Z,100.00
2023-04-26T00:21:37.499Z,100.00
2023-04-26T00:22:19.183Z,100.00
2023-04-26T00:23:00.817Z,100.00
2023-04-26T00:23:42.452Z,100.00
2023-04-26T00:24:24.004Z,100.00
2023-04-26T00:25:06.165Z,100.00
2023-04-26T00:25:47.810Z,100.00
2023-04-26T00:26:29.912Z,100.00
2023-04-26T00:27:11.587Z,100.00
2023-04-26T00:27:53.173Z,100.00
2023-04-26T00:28:35.015Z,100.00
2023-04-26T00:29:16.651Z,100.00
2023-04-26T00:29:58.253Z,100.00
2023-04-26T00:30:42.160Z,100.00
2023-04-26T00:31:24.539Z,100.00
2023-04-26T00:32:06.750Z,100.00
2023-04-26T00:32:48.587Z,100.00
2023-04-26T00:33:30.574Z,100.00
2023-04-26T00:34:12.170Z,100.00
2023-04-26T00:34:53.742Z,100.00
2023-04-26T00:35:35.782Z,100.00
2023-04-26T00:36:19.362Z,100.00
2023-04-26T00:37:01.503Z,100.00
2023-04-26T00:37:45.391Z,100.00
2023-04-26T00:38:27.068Z,100.00
2023-04-26T00:39:09.342Z,100.00
2023-04-26T00:39:50.954Z,100.00
2023-04-26T00:40:35.366Z,100.00
2023-04-26T00:41:17.047Z,100.00
2023-04-26T00:41:58.672Z,100.00
2023-04-26T00:42:40.452Z,100.00
2023-04-26T00:43:22.058Z,100.00
2023-04-26T00:44:03.800Z,100.00
2023-04-26T00:44:45.394Z,100.00
2023-04-26T00:45:27.446Z,100.00
2023-04-26T00:46:09.718Z,100.00
2023-04-26T00:46:53.498Z,100.00
2023-04-26T00:47:35.667Z,100.00
2023-04-26T00:48:18.546Z,100.00
2023-04-26T00:49:00.258Z,100.00
2023-04-26T00:49:44.667Z,100.00
2023-04-26T00:50:27.147Z,100.00
2023-04-26T00:51:09.236Z,100.00
2023-04-26T00:51:52.620Z,100.00
2023-04-26T00:52:34.336Z,100.00
2023-04-26T00:53:16.587Z,100.00
2023-04-26T00:53:59.492Z,100.00
2023-04-26T00:54:42.099Z,100.00
2023-04-26T00:55:24.633Z,100.00
2023-04-26T00:56:07.992Z,100.00
2023-04-26T00:56:52.960Z,100.00
2023-04-26T00:57:34.577Z,100.00
2023-04-26T00:58:16.400Z,100.00
2023-04-26T00:58:58.098Z,100.00
2023-04-26T00:59:40.000Z,100.00
2023-04-26T01:00:21.635Z,100.00
2023-04-26T01:01:03.706Z,100.00
2023-04-26T01:01:45.383Z,100.00
2023-04-26T01:02:27.282Z,100.00
2023-04-26T01:03:09.281Z,100.00
2023-04-26T01:03:51.202Z,100.00
2023-04-26T01:04:33.608Z,100.00
2023-04-26T01:05:15.398Z,100.00
2023-04-26T01:05:59.370Z,100.00
2023-04-26T01:06:41.859Z,100.00
2023-04-26T01:07:23.821Z,100.00
2023-04-26T01:08:06.548Z,100.00
2023-04-26T01:08:48.245Z,100.00
2023-04-26T01:09:31.893Z,100.00
2023-04-26T01:10:14.437Z,100.00
2023-04-26T01:10:56.305Z,100.00
2023-04-26T01:11:38.300Z,100.00
2023-04-26T01:12:21.639Z,100.00
2023-04-26T01:13:03.677Z,100.00
2023-04-26T01:13:46.751Z,100.00
2023-04-26T01:14:29.070Z,100.00
2023-04-26T01:15:11.840Z,100.00
2023-04-26T01:15:54.761Z,100.00
2023-04-26T01:16:36.558Z,100.00
2023-04-26T01:17:18.850Z,100.00
2023-04-26T01:18:00.570Z,100.00
2023-04-26T01:18:42.835Z,100.00
2023-04-26T01:19:25.621Z,100.00
2023-04-26T01:20:09.978Z,100.00
2023-04-26T01:20:53.030Z,100.00
2023-04-26T01:21:34.594Z,100.00
2023-04-26T01:22:16.454Z,100.00
2023-04-26T01:22:58.077Z,100.00
2023-04-26T01:23:39.687Z,100.00
2023-04-26T01:24:21.382Z,100.00
2023-04-26T01:25:07.665Z,100.00
2023-04-26T01:25:50.666Z,100.00
2023-04-26T01:26:32.291Z,100.00
2023-04-26T01:27:14.161Z,100.00
2023-04-26T01:27:55.892Z,100.00
2023-04-26T01:28:40.059Z,100.00
2023-04-26T01:29:24.178Z,100.00
2023-04-26T01:30:06.544Z,100.00
2023-04-26T01:30:48.529Z,100.00
2023-04-26T01:31:30.343Z,100.00
2023-04-26T01:32:12.990Z,100.00
2023-04-26T01:32:55.362Z,100.00
2023-04-26T01:33:36.926Z,100.00
2023-04-26T01:34:18.557Z,100.00
2023-04-26T01:35:01.180Z,100.00
2023-04-26T01:35:42.859Z,100.00
2023-04-26T01:36:24.442Z,100.00
2023-04-26T01:37:07.677Z,100.00
2023-04-26T01:37:49.223Z,100.00
2023-04-26T01:38:30.879Z,100.00
2023-04-26T01:39:12.785Z,100.00
2023-04-26T01:39:54.427Z,100.00
2023-04-26T01:40:36.273Z,100.00
2023-04-26T01:41:20.960Z,100.00
2023-04-26T01:42:04.503Z,100.00
2023-04-26T01:42:47.040Z,100.00
2023-04-26T01:43:28.678Z,100.00
2023-04-26T01:44:12.414Z,100.00
2023-04-26T01:44:53.968Z,100.00
2023-04-26T01:45:37.083Z,100.00
2023-04-26T01:46:37.504Z,100.00
2023-04-26T01:47:19.369Z,100.00
2023-04-26T01:48:01.057Z,100.00
2023-04-26T01:48:42.717Z,100.00
2023-04-26T01:49:24.404Z,100.00
2023-04-26T01:50:06.842Z,100.00
2023-04-26T01:50:48.416Z,100.00
2023-04-26T01:51:30.076Z,100.00
2023-04-26T01:52:11.852Z,100.00
2023-04-26T01:52:53.545Z,100.00
2023-04-26T01:53:37.829Z,100.00
2023-04-26T01:54:19.441Z,100.00
2023-04-26T01:55:01.128Z,100.00
2023-04-26T01:55:42.698Z,100.00
2023-04-26T01:56:24.836Z,100.00
2023-04-26T01:57:07.905Z,100.00
2023-04-26T01:57:49.533Z,100.00
2023-04-26T01:58:31.418Z,100.00
2023-04-26T01:59:13.010Z,100.00
2023-04-26T01:59:55.994Z,100.00
2023-04-26T02:00:37.670Z,100.00
2023-04-26T02:01:19.346Z,100.00
2023-04-26T02:02:01.080Z,100.00
2023-04-26T02:02:42.787Z,100.00
2023-04-26T02:03:24.544Z,100.00
2023-04-26T02:04:06.506Z,100.00
2023-04-26T02:04:48.126Z,100.00
2023-04-26T02:05:30.836Z,100.00
2023-04-26T02:06:12.602Z,100.00
2023-04-26T02:06:54.222Z,100.00
2023-04-26T02:07:35.821Z,100.00
2023-04-26T02:08:17.427Z,100.00
2023-04-26T02:08:59.091Z,100.00
2023-04-26T02:09:41.385Z,100.00
2023-04-26T02:10:23.680Z,100.00
2023-04-26T02:11:05.866Z,100.00
2023-04-26T02:11:47.430Z,100.00
2023-04-26T02:12:29.048Z,100.00
2023-04-26T02:13:10.634Z,100.00
2023-04-26T02:13:53.302Z,100.00
2023-04-26T02:14:36.066Z,100.00
2023-04-26T02:15:17.798Z,100.00
2023-04-26T02:15:59.611Z,100.00
2023-04-26T02:16:41.393Z,100.00
2023-04-26T02:17:23.611Z,100.00
2023-04-26T02:18:05.640Z,100.00
2023-04-26T02:18:49.746Z,100.00
2023-04-26T02:19:31.690Z,100.00
2023-04-26T02:20:13.287Z,100.00
2023-04-26T02:20:54.966Z,100.00
2023-04-26T02:21:52.711Z,100.00
2023-04-26T02:22:34.307Z,100.00
2023-04-26T02:23:16.600Z,100.00
2023-04-26T02:23:58.199Z,100.00
2023-04-26T02:24:39.843Z,100.00
2023-04-26T02:25:21.572Z,100.00
2023-04-26T02:26:03.493Z,100.00
2023-04-26T02:26:45.228Z,100.00
2023-04-26T02:27:27.770Z,100.00
2023-04-26T02:28:09.604Z,100.00
2023-04-26T02:28:51.487Z,100.00
2023-04-26T02:29:43.709Z,100.00
2023-04-26T02:30:26.386Z,100.00
2023-04-26T02:31:08.505Z,100.00
2023-04-26T02:31:50.542Z,100.00
2023-04-26T02:32:32.336Z,100.00
2023-04-26T02:33:13.963Z,100.00
2023-04-26T02:33:56.268Z,100.00
2023-04-26T02:34:37.898Z,100.00
2023-04-26T02:35:19.877Z,100.00
2023-04-26T02:36:08.137Z,100.00
2023-04-26T02:36:50.302Z,100.00
2023-04-26T02:37:32.855Z,100.00
2023-04-26T02:38:14.508Z,100.00
2023-04-26T02:38:56.256Z,100.00
2023-04-26T02:39:37.974Z,100.00
2023-04-26T02:40:19.941Z,100.00
2023-04-26T02:41:03.288Z,100.00
2023-04-26T02:41:45.501Z,100.00
2023-04-26T02:42:27.033Z,100.00
2023-04-26T02:43:10.154Z,100.00
2023-04-26T02:43:53.453Z,100.00
2023-04-26T02:44:35.189Z,100.00
2023-04-26T02:45:17.495Z,100.00
2023-04-26T02:46:00.865Z,100.00
2023-04-26T02:46:42.561Z,100.00
2023-04-26T02:47:25.025Z,100.00
2023-04-26T02:48:06.760Z,100.00
2023-04-26T02:48:48.478Z,100.00
2023-04-26T02:49:30.772Z,100.00
2023-04-26T02:50:12.421Z,100.00
2023-04-26T02:50:54.125Z,100.00
2023-04-26T02:51:35.946Z,100.00
2023-04-26T02:52:17.511Z,100.00
2023-04-26T02:52:59.084Z,100.00
2023-04-26T02:53:40.662Z,100.00
2023-04-26T02:54:22.309Z,100.00
2023-04-26T02:55:04.937Z,100.00
2023-04-26T02:55:46.668Z,100.00
2023-04-26T02:56:28.343Z,100.00
2023-04-26T02:57:10.187Z,100.00
2023-04-26T02:57:51.855Z,100.00
2023-04-26T02:58:33.443Z,100.00
2023-04-26T02:59:15.071Z,100.00
2023-04-26T02:59:57.903Z,100.00
2023-04-26T03:00:39.792Z,100.00
2023-04-26T03:01:22.007Z,100.00
2023-04-26T03:02:03.797Z,100.00
2023-04-26T03:02:45.707Z,100.00
2023-04-26T03:03:27.657Z,100.00
2023-04-26T03:04:09.866Z,100.00
2023-04-26T03:04:52.600Z,100.00
2023-04-26T03:05:37.451Z,100.00
2023-04-26T03:06:19.188Z,100.00
2023-04-26T03:07:01.166Z,100.00
2023-04-26T03:07:42.948Z,100.00
2023-04-26T03:08:24.668Z,100.00
2023-04-26T03:09:06.928Z,100.00
2023-04-26T03:09:51.433Z,100.00
2023-04-26T03:10:33.121Z,100.00
2023-04-26T03:11:15.082Z,100.00
2023-04-26T03:11:57.213Z,100.00
2023-04-26T03:12:38.951Z,100.00
2023-04-26T03:13:23.557Z,100.00
2023-04-26T03:14:07.332Z,100.00
2023-04-26T03:14:48.957Z,100.00
2023-04-26T03:15:31.006Z,100.00
2023-04-26T03:16:12.755Z,100.00
2023-04-26T03:16:54.862Z,100.00
2023-04-26T03:17:37.754Z,100.00
2023-04-26T03:18:20.053Z,100.00
2023-04-26T03:19:01.662Z,100.00
2023-04-26T03:19:43.429Z,100.00
2023-04-26T03:20:26.346Z,100.00
2023-04-26T03:21:08.124Z,100.00
2023-04-26T03:21:49.943Z,100.00
2023-04-26T03:22:31.914Z,100.00
2023-04-26T03:23:13.547Z,100.00
2023-04-26T03:23:55.228Z,100.00
2023-04-26T03:24:37.325Z,100.00
2023-04-26T03:25:19.536Z,100.00
2023-04-26T03:26:01.142Z,100.00
2023-04-26T03:26:43.045Z,100.00
2023-04-26T03:27:24.740Z,100.00
2023-04-26T03:28:06.493Z,100.00
2023-04-26T03:28:48.168Z,100.00
2023-04-26T03:29:29.800Z,100.00
2023-04-26T03:30:11.827Z,100.00
2023-04-26T03:30:55.022Z,100.00
2023-04-26T03:31:36.641Z,100.00
2023-04-26T03:32:18.919Z,100.00
2023-04-26T03:33:00.726Z,100.00
2023-04-26T03:33:42.400Z,100.00
2023-04-26T03:34:24.065Z,100.00
2023-04-26T03:35:06.093Z,100.00
2023-04-26T03:35:47.889Z,100.00
2023-04-26T03:36:29.814Z,100.00
2023-04-26T03:37:11.625Z,100.00
2023-04-26T03:37:54.455Z,100.00
2023-04-26T03:38:37.655Z,100.00
2023-04-26T03:39:19.528Z,100.00
2023-04-26T03:40:01.231Z,100.00
2023-04-26T03:40:42.934Z,100.00
2023-04-26T03:41:24.638Z,100.00
2023-04-26T03:42:08.133Z,100.00
2023-04-26T03:42:50.397Z,100.00
2023-04-26T03:43:32.489Z,100.00
2023-04-26T03:44:15.518Z,100.00
2023-04-26T03:44:57.563Z,100.00
2023-04-26T03:45:39.244Z,100.00
2023-04-26T03:46:21.677Z,100.00
2023-04-26T03:47:05.196Z,100.00
2023-04-26T03:47:47.180Z,100.00
2023-04-26T03:48:28.801Z,100.00
2023-04-26T03:49:10.462Z,100.00
2023-04-26T03:49:52.046Z,100.00
2023-04-26T03:50:33.659Z,100.00
2023-04-26T03:51:15.355Z,100.00
2023-04-26T03:51:57.226Z,100.00
2023-04-26T03:52:39.025Z,100.00
2023-04-26T03:53:20.653Z,100.00
2023-04-26T03:54:03.484Z,100.00
2023-04-26T03:54:45.141Z,100.00
2023-04-26T03:55:27.058Z,100.00
2023-04-26T03:56:08.684Z,100.00
2023-04-26T03:56:51.289Z,100.00
2023-04-26T03:57:33.978Z,100.00
2023-04-26T03:58:15.904Z,100.00
2023-04-26T03:58:57.701Z,100.00
2023-04-26T03:59:40.982Z,100.00
2023-04-26T04:00:22.591Z,100.00
2023-04-26T04:01:04.835Z,100.00
2023-04-26T04:01:46.501Z,100.00
2023-04-26T04:02:28.268Z,100.00
2023-04-26T04:03:11.251Z,100.00
2023-04-26T04:03:53.294Z,100.00
2023-04-26T04:04:35.642Z,100.00
2023-04-26T04:05:17.517Z,100.00
2023-04-26T04:05:59.266Z,100.00
2023-04-26T04:06:41.451Z,100.00
2023-04-26T04:07:23.187Z,100.00
2023-04-26T04:08:04.917Z,100.00
2023-04-26T04:08:46.596Z,100.00
2023-04-26T04:09:28.244Z,100.00
2023-04-26T04:10:10.842Z,100.00
2023-04-26T04:10:53.875Z,100.00
2023-04-26T04:11:35.508Z,100.00
2023-04-26T04:12:17.083Z,100.00
2023-04-26T04:12:59.279Z,100.00
2023-04-26T04:13:40.973Z,100.00
2023-04-26T04:14:23.926Z,100.00
2023-04-26T04:15:06.099Z,100.00
2023-04-26T04:15:48.478Z,100.00
2023-04-26T04:16:30.167Z,100.00
2023-04-26T04:17:12.065Z,100.00
2023-04-26T04:17:54.108Z,100.00
2023-04-26T04:18:36.328Z,100.00
2023-04-26T04:19:19.020Z,100.00
2023-04-26T04:20:05.088Z,100.00
2023-04-26T04:20:46.673Z,100.00
2023-04-26T04:21:28.762Z,100.00
2023-04-26T04:22:11.660Z,100.00
2023-04-26T04:22:54.294Z,100.00
2023-04-26T04:23:36.015Z,100.00
2023-04-26T04:24:22.117Z,100.00
2023-04-26T04:25:05.872Z,100.00
2023-04-26T04:25:48.705Z,100.00
2023-04-26T04:26:33.491Z,100.00
2023-04-26T04:27:16.240Z,100.00
2023-04-26T04:27:59.835Z,100.00
2023-04-26T04:28:41.796Z,100.00
2023-04-26T04:29:23.945Z,100.00
2023-04-26T04:30:07.570Z,100.00
2023-04-26T04:30:50.220Z,100.00
2023-04-26T04:31:32.034Z,100.00
2023-04-26T04:32:15.048Z,100.00
2023-04-26T04:33:00.137Z,100.00
2023-04-26T04:33:41.826Z,100.00
2023-04-26T04:34:24.559Z,100.00
2023-04-26T04:35:07.291Z,100.00
2023-04-26T04:35:49.743Z,100.00
2023-04-26T04:36:32.401Z,100.00
2023-04-26T04:37:14.821Z,100.00
2023-04-26T04:37:57.083Z,100.00
2023-04-26T04:38:39.005Z,100.00
2023-04-26T04:39:22.104Z,100.00
2023-04-26T04:40:05.279Z,100.00
2023-04-26T04:40:50.228Z,100.00
2023-04-26T04:41:33.011Z,100.00
2023-04-26T04:42:15.227Z,100.00
2023-04-26T04:42:56.880Z,100.00
2023-04-26T04:43:40.374Z,100.00
2023-04-26T04:44:23.984Z,100.00
2023-04-26T04:45:07.455Z,100.00
2023-04-26T04:45:51.398Z,100.00
2023-04-26T04:46:33.119Z,100.00
2023-04-26T04:47:15.207Z,100.00
2023-04-26T04:47:56.967Z,100.00
2023-04-26T04:48:38.798Z,100.00
2023-04-26T04:49:21.001Z,100.00
2023-04-26T04:50:05.737Z,100.00
2023-04-26T04:50:49.545Z,100.00
2023-04-26T04:51:31.244Z,100.00
2023-04-26T04:52:13.077Z,100.00
2023-04-26T04:52:54.759Z,100.00
2023-04-26T04:53:36.545Z,100.00
2023-04-26T04:54:19.153Z,100.00
2023-04-26T04:55:02.487Z,100.00
2023-04-26T04:55:44.369Z,100.00
2023-04-26T04:56:27.530Z,100.00
2023-04-26T04:57:09.281Z,100.00
2023-04-26T04:57:51.994Z,100.00
2023-04-26T04:58:33.838Z,100.00
2023-04-26T04:59:15.871Z,100.00
2023-04-26T04:59:58.338Z,100.00
2023-04-26T05:00:41.141Z,100.00
2023-04-26T05:01:41.777Z,100.00
2023-04-26T05:02:26.867Z,100.00
2023-04-26T05:03:09.843Z,100.00
2023-04-26T05:03:52.155Z,100.00
2023-04-26T05:04:34.564Z,100.00
2023-04-26T05:05:17.347Z,100.00
2023-04-26T05:06:00.297Z,100.00
2023-04-26T05:06:42.127Z,100.00
2023-04-26T05:07:26.305Z,100.00
2023-04-26T05:08:09.218Z,100.00
2023-04-26T05:08:51.578Z,100.00
2023-04-26T05:09:33.732Z,100.00
2023-04-26T05:10:15.726Z,100.00
2023-04-26T05:10:57.398Z,100.00
2023-04-26T05:11:39.302Z,100.00
2023-04-26T05:12:22.648Z,100.00
2023-04-26T05:13:05.535Z,100.00
2023-04-26T05:13:48.979Z,100.00
2023-04-26T05:14:32.088Z,100.00
2023-04-26T05:15:13.765Z,100.00
2023-04-26T05:15:55.384Z,100.00
2023-04-26T05:16:38.325Z,100.00
2023-04-26T05:17:20.135Z,100.00
2023-04-26T05:18:02.036Z,100.00
2023-04-26T05:18:44.232Z,100.00
2023-04-26T05:19:25.956Z,100.00
2023-04-26T05:20:08.409Z,100.00
2023-04-26T05:20:50.555Z,100.00
2023-04-26T05:21:32.433Z,100.00
2023-04-26T05:22:18.772Z,100.00
2023-04-26T05:23:01.259Z,100.00
2023-04-26T05:23:43.009Z,100.00
2023-04-26T05:24:24.755Z,100.00
2023-04-26T05:25:08.369Z,100.00
2023-04-26T05:25:50.974Z,100.00
2023-04-26T05:26:51.126Z,100.00
2023-04-26T05:27:47.921Z,100.00
2023-04-26T05:28:53.082Z,100.00
2023-04-26T05:29:34.688Z,100.00
2023-04-26T05:30:43.180Z,100.00
2023-04-26T05:31:40.080Z,100.00
2023-04-26T05:32:45.808Z,100.00
2023-04-26T05:33:41.104Z,100.00
2023-04-26T05:34:32.960Z,100.00
2023-04-26T05:35:14.699Z,100.00
2023-04-26T05:35:58.004Z,100.00
2023-04-26T05:36:40.246Z,100.00
2023-04-26T05:37:21.844Z,100.00
2023-04-26T05:38:03.805Z,100.00
2023-04-26T05:38:45.459Z,100.00
2023-04-26T05:39:27.101Z,100.00
2023-04-26T05:40:09.736Z,100.00
2023-04-26T05:40:51.410Z,100.00
2023-04-26T05:41:33.049Z,100.00
2023-04-26T05:42:17.505Z,100.00
2023-04-26T05:42:59.769Z,100.00
2023-04-26T05:43:42.367Z,100.00
2023-04-26T05:44:24.502Z,100.00
2023-04-26T05:45:06.728Z,100.00
2023-04-26T05:45:52.505Z,100.00
2023-04-26T05:46:34.120Z,100.00
2023-04-26T05:47:15.718Z,100.00
2023-04-26T05:47:57.384Z,100.00
2023-04-26T05:48:40.037Z,100.00
2023-04-26T05:49:22.092Z,100.00
2023-04-26T05:50:03.997Z,100.00
2023-04-26T05:50:45.636Z,100.00
2023-04-26T05:51:28.008Z,100.00
2023-04-26T05:52:09.656Z,100.00
2023-04-26T05:52:52.258Z,100.00
2023-04-26T05:53:34.214Z,100.00
2023-04-26T05:54:15.971Z,100.00
2023-04-26T05:54:57.601Z,100.00
2023-04-26T05:55:42.103Z,100.00
2023-04-26T05:56:24.304Z,100.00
2023-04-26T05:57:06.154Z,100.00
2023-04-26T05:57:47.887Z,100.00
2023-04-26T05:58:29.665Z,100.00
2023-04-26T05:59:12.904Z,100.00
2023-04-26T05:59:54.583Z,100.00
2023-04-26T06:00:37.572Z,100.00
2023-04-26T06:01:19.610Z,100.00
2023-04-26T06:02:01.568Z,100.00
2023-04-26T06:02:43.791Z,100.00
2023-04-26T06:03:30.593Z,100.00
2023-04-26T06:04:12.719Z,100.00
2023-04-26T06:05:05.386Z,100.00
2023-04-26T06:05:47.245Z,100.00
2023-04-26T06:06:29.316Z,100.00
2023-04-26T06:07:10.901Z,100.00
2023-04-26T06:07:53.314Z,100.00
2023-04-26T06:08:35.628Z,100.00
2023-04-26T06:09:18.979Z,100.00
2023-04-26T06:10:02.485Z,100.00
2023-04-26T06:10:44.861Z,100.00
2023-04-26T06:11:26.848Z,100.00
2023-04-26T06:12:08.893Z,100.00
2023-04-26T06:12:54.666Z,100.00
2023-04-26T06:13:37.384Z,100.00
2023-04-26T06:14:29.864Z,100.00
2023-04-26T06:15:14.070Z,100.00
2023-04-26T06:15:55.869Z,100.00
2023-04-26T06:16:37.498Z,100.00
2023-04-26T06:17:21.210Z,100.00
2023-04-26T06:18:04.956Z,100.00
2023-04-26T06:18:46.998Z,100.00
2023-04-26T06:19:28.579Z,100.00
2023-04-26T06:20:10.754Z,100.00
2023-04-26T06:20:52.606Z,100.00
2023-04-26T06:21:34.371Z,100.00
2023-04-26T06:22:16.009Z,100.00
2023-04-26T06:22:58.490Z,100.00
2023-04-26T06:23:40.208Z,100.00
2023-04-26T06:24:22.868Z,100.00
2023-04-26T06:25:05.565Z,100.00
2023-04-26T06:25:48.219Z,100.00
2023-04-26T06:26:31.493Z,100.00
2023-04-26T06:27:13.307Z,100.00
2023-04-26T06:27:59.360Z,100.00
2023-04-26T06:28:42.435Z,100.00
2023-04-26T06:29:24.417Z,100.00
2023-04-26T06:30:07.810Z,100.00
2023-04-26T06:30:51.463Z,100.00
2023-04-26T06:31:33.318Z,100.00
2023-04-26T06:32:15.093Z,100.00
2023-04-26T06:33:00.078Z,100.00
2023-04-26T06:33:41.855Z,100.00
2023-04-26T06:34:23.640Z,100.00
2023-04-26T06:35:05.565Z,100.00
2023-04-26T06:35:47.287Z,100.00
2023-04-26T06:36:29.272Z,100.00
2023-04-26T06:37:11.548Z,100.00
2023-04-26T06:37:56.417Z,100.00
2023-04-26T06:38:38.107Z,100.00
2023-04-26T06:39:19.812Z,100.00
2023-04-26T06:40:02.106Z,100.00
2023-04-26T06:40:43.713Z,100.00
2023-04-26T06:41:26.001Z,100.00
2023-04-26T06:42:08.065Z,100.00
2023-04-26T06:43:04.737Z,100.00
2023-04-26T06:44:01.388Z,100.00
2023-04-26T06:44:46.114Z,100.00
2023-04-26T06:45:27.829Z,100.00
2023-04-26T06:46:09.760Z,100.00
2023-04-26T06:46:55.443Z,100.00
2023-04-26T06:47:37.624Z,100.00
2023-04-26T06:48:19.293Z,100.00
2023-04-26T06:49:01.557Z,100.00
2023-04-26T06:49:43.401Z,100.00
2023-04-26T06:50:25.026Z,100.00
2023-04-26T06:51:08.462Z,100.00
2023-04-26T06:51:50.372Z,100.00
2023-04-26T06:52:32.326Z,100.00
2023-04-26T06:53:13.972Z,100.00
2023-04-26T06:54:01.406Z,100.00
2023-04-26T06:54:54.025Z,100.00
2023-04-26T06:55:38.058Z,100.00
2023-04-26T06:56:21.038Z,100.00
2023-04-26T06:57:02.649Z,100.00
2023-04-26T06:57:44.347Z,100.00
2023-04-26T06:58:25.948Z,100.00
2023-04-26T06:59:07.984Z,100.00
2023-04-26T06:59:49.581Z,100.00
2023-04-26T07:00:31.588Z,100.00
2023-04-26T07:01:13.339Z,100.00
2023-04-26T07:01:54.967Z,100.00
2023-04-26T07:02:36.928Z,100.00
2023-04-26T07:03:18.906Z,100.00
2023-04-26T07:04:04.375Z,100.00
2023-04-26T07:04:47.000Z,100.00
2023-04-26T07:05:28.875Z,100.00
2023-04-26T07:06:10.623Z,100.00
2023-04-26T07:06:52.307Z,100.00
2023-04-26T07:07:33.995Z,100.00
2023-04-26T07:08:15.599Z,100.00
2023-04-26T07:09:01.538Z,100.00
2023-04-26T07:09:44.098Z,100.00
2023-04-26T07:10:27.332Z,100.00
2023-04-26T07:11:13.474Z,100.00
2023-04-26T07:11:55.194Z,100.00
2023-04-26T07:12:36.966Z,100.00
2023-04-26T07:13:18.556Z,100.00
2023-04-26T07:14:02.064Z,100.00
2023-04-26T07:14:43.700Z,100.00
2023-04-26T07:15:25.326Z,100.00
2023-04-26T07:16:09.102Z,100.00
2023-04-26T07:16:50.756Z,100.00
2023-04-26T07:17:33.028Z,100.00
2023-04-26T07:18:14.681Z,100.00
2023-04-26T07:18:58.485Z,100.00
2023-04-26T07:19:40.197Z,100.00
2023-04-26T07:20:22.754Z,100.00
2023-04-26T07:21:04.386Z,100.00
2023-04-26T07:21:45.985Z,100.00
2023-04-26T07:22:27.809Z,100.00
2023-04-26T07:23:09.397Z,100.00
2023-04-26T07:23:55.789Z,100.00
2023-04-26T07:24:37.413Z,100.00
2023-04-26T07:25:19.129Z,100.00
2023-04-26T07:26:04.499Z,100.00
2023-04-26T07:26:46.977Z,100.00
2023-04-26T07:27:31.141Z,100.00
2023-04-26T07:28:12.930Z,100.00
2023-04-26T07:28:54.744Z,100.00
2023-04-26T07:29:36.444Z,100.00
2023-04-26T07:30:18.138Z,100.00
2023-04-26T07:31:00.348Z,100.00
2023-04-26T07:31:42.830Z,100.00
2023-04-26T07:32:24.613Z,100.00
2023-04-26T07:33:06.297Z,100.00
2023-04-26T07:33:48.158Z,100.00
2023-04-26T07:34:29.841Z,100.00
2023-04-26T07:35:16.069Z,100.00
2023-04-26T07:35:59.857Z,100.00
2023-04-26T07:36:41.422Z,100.00
2023-04-26T07:37:23.419Z,100.00
2023-04-26T07:38:05.136Z,100.00
2023-04-26T07:38:46.746Z,100.00
2023-04-26T07:39:28.312Z,100.00
2023-04-26T07:40:11.504Z,100.00
2023-04-26T07:40:53.319Z,100.00
2023-04-26T07:41:34.977Z,100.00
2023-04-26T07:42:16.840Z,100.00
2023-04-26T07:42:58.980Z,100.00
2023-04-26T07:43:41.086Z,100.00
2023-04-26T07:44:22.703Z,100.00
2023-04-26T07:45:04.821Z,100.00
2023-04-26T07:45:47.207Z,100.00
2023-04-26T07:46:28.927Z,100.00
2023-04-26T07:47:14.292Z,100.00
2023-04-26T07:47:56.028Z,100.00
2023-04-26T07:48:37.765Z,100.00
2023-04-26T07:49:19.329Z,100.00
2023-04-26T07:50:01.174Z,100.00
2023-04-26T07:50:42.887Z,100.00
2023-04-26T07:51:24.574Z,100.00
2023-04-26T07:52:06.205Z,100.00
2023-04-26T07:52:47.815Z,100.00
2023-04-26T07:53:29.411Z,100.00
2023-04-26T07:54:11.301Z,100.00
2023-04-26T07:54:53.005Z,100.00
2023-04-26T07:55:34.724Z,100.00
2023-04-26T07:56:16.371Z,100.00
2023-04-26T07:56:57.938Z,100.00
2023-04-26T07:57:39.530Z,100.00
2023-04-26T07:58:21.497Z,100.00
2023-04-26T07:59:04.872Z,100.00
2023-04-26T07:59:46.578Z,100.00
2023-04-26T08:00:28.525Z,100.00
2023-04-26T08:01:11.653Z,100.00
2023-04-26T08:01:53.461Z,99.60
2023-04-26T08:02:44.711Z,97.23
2023-04-26T08:03:28.235Z,98.82
2023-04-26T08:04:10.584Z,98.82
2023-04-26T08:04:53.211Z,99.20
2023-04-26T08:05:35.093Z,100.00
2023-04-26T08:06:17.150Z,100.00
2023-04-26T08:06:59.153Z,100.00
2023-04-26T08:07:41.927Z,100.00
2023-04-26T08:08:23.568Z,100.00
2023-04-26T08:09:05.511Z,100.00
2023-04-26T08:09:48.952Z,100.00
2023-04-26T08:10:31.138Z,100.00
2023-04-26T08:11:12.810Z,100.00
2023-04-26T08:11:55.078Z,99.66
2023-04-26T08:12:38.228Z,92.67
2023-04-26T08:13:20.370Z,90.75
2023-04-26T08:14:02.018Z,88.99
2023-04-26T08:14:43.647Z,85.82
2023-04-26T08:15:25.319Z,87.56
2023-04-26T08:16:07.257Z,91.88
2023-04-26T08:16:49.028Z,94.70
2023-04-26T08:17:32.048Z,91.60
2023-04-26T08:18:13.759Z,87.55
2023-04-26T08:18:55.684Z,86.40
2023-04-26T08:19:37.482Z,86.48
2023-04-26T08:20:19.458Z,83.83
2023-04-26T08:21:01.312Z,83.62
2023-04-26T08:21:42.978Z,83.19
2023-04-26T08:22:25.078Z,82.91
2023-04-26T08:23:06.779Z,80.05
2023-04-26T08:23:48.420Z,77.69
2023-04-26T08:24:30.042Z,75.96
2023-04-26T08:25:11.821Z,74.52
2023-04-26T08:25:53.435Z,72.19
2023-04-26T08:26:35.025Z,72.18
2023-04-26T08:27:17.622Z,67.84
2023-04-26T08:27:59.248Z,63.31
2023-04-26T08:28:41.076Z,63.47
2023-04-26T08:29:23.279Z,62.51
2023-04-26T08:30:05.725Z,58.92
2023-04-26T08:30:47.649Z,60.33
2023-04-26T08:31:29.343Z,60.20
2023-04-26T08:32:11.040Z,59.08
2023-04-26T08:32:52.698Z,58.19
2023-04-26T08:33:34.319Z,57.12
2023-04-26T08:34:16.001Z,57.42
2023-04-26T08:34:57.584Z,57.88
2023-04-26T08:35:39.159Z,56.09
2023-04-26T08:36:20.821Z,56.71
2023-04-26T08:37:02.525Z,56.07
2023-04-26T08:37:44.271Z,57.54
2023-04-26T08:38:25.849Z,56.94
2023-04-26T08:39:08.332Z,58.45
2023-04-26T08:39:49.982Z,59.25
2023-04-26T08:40:32.872Z,59.18
2023-04-26T08:41:15.338Z,58.69
2023-04-26T08:42:04.385Z,56.01
2023-04-26T08:42:46.689Z,54.98
2023-04-26T08:43:29.583Z,54.81
2023-04-26T08:44:11.717Z,55.76
2023-04-26T08:44:54.278Z,56.04
2023-04-26T08:45:40.800Z,54.85
2023-04-26T08:46:23.588Z,54.40
2023-04-26T08:47:17.940Z,53.83
2023-04-26T08:48:05.757Z,54.92
2023-04-26T08:49:11.748Z,56.53
2023-04-26T08:49:59.804Z,57.37
2023-04-26T08:50:45.022Z,59.21
2023-04-26T08:51:27.429Z,59.59
2023-04-26T08:52:11.578Z,59.32
2023-04-26T08:52:53.368Z,58.89
2023-04-26T08:53:36.742Z,58.55
2023-04-26T08:54:20.036Z,58.42
2023-04-26T08:55:05.326Z,58.31